Terminal Aerodrome Forecast
Issued by NWS

Home | Current Version | Previous Version | Text Only | Print | Product List | Glossary On
Versions: 1 2 3 4 5 6 7 8 9 10 11 12 13
000
FTUS45 KPSR 230520
TAFSDL
TAF
KSDL 230520Z 2306/2406 VRB03KT P6SM FEW120 SCT250
     FM232000 25005KT P6SM FEW080 SCT250
     FM240400 15010G20KT P6SM VCSH BKN070 BKN200=

USA.gov is the U.S. government's official web portal to all federal, state and local government web resources and services.